Time;durP1;ratioP1;P1;durP2;ratioP2;P2;SDS_P1;SDS_P2;PMS_P1;PMS_P2;Temp;Humidity;BMP_temperature;BMP_pressure;BME280_temperature;BME280_humidity;BME280_pressure;Samples;Min_cycle;Max_cycle;Signal;HPM_P1;HPM_P2
2022/03/25 00:00:24;;;;;;;14.05;10.45;;;19.60;50.60;;;;;;4986522;28;20029;-76
2022/03/25 00:02:50;;;;;;;14.80;10.73;;;19.60;50.70;;;;;;4984404;28;20034;-76
2022/03/25 00:05:16;;;;;;;13.90;10.60;;;19.60;50.70;;;;;;4985543;28;20081;-76
2022/03/25 00:07:41;;;;;;;15.38;11.05;;;19.60;50.60;;;;;;4985942;28;20038;-77
2022/03/25 00:10:07;;;;;;;19.08;10.80;;;19.50;50.60;;;;;;4985928;28;20014;-76
2022/03/25 00:12:33;;;;;;;15.48;11.07;;;19.60;50.70;;;;;;4967812;28;20501;-75
2022/03/25 00:14:59;;;;;;;16.70;11.27;;;19.50;50.60;;;;;;4985187;28;20054;-76
2022/03/25 00:17:24;;;;;;;17.70;11.13;;;19.50;50.60;;;;;;4985837;28;20061;-75
2022/03/25 00:19:51;;;;;;;16.65;10.75;;;19.50;50.60;;;;;;4984957;28;20058;-76
2022/03/25 00:22:17;;;;;;;14.90;11.13;;;19.50;50.60;;;;;;4985768;28;20509;-78
2022/03/25 00:24:43;;;;;;;15.23;11.63;;;19.50;50.60;;;;;;4967645;28;20533;-75
2022/03/25 00:27:09;;;;;;;15.57;11.60;;;19.50;50.60;;;;;;4985586;28;20034;-77
2022/03/25 00:29:35;;;;;;;16.35;11.40;;;19.50;50.70;;;;;;4967699;28;20401;-75
2022/03/25 00:32:01;;;;;;;16.38;10.70;;;19.50;50.70;;;;;;4985187;28;20043;-76
2022/03/25 00:34:27;;;;;;;15.15;11.00;;;19.50;50.70;;;;;;4985425;28;20018;-78
2022/03/25 00:36:52;;;;;;;15.35;10.95;;;19.40;50.70;;;;;;4984880;28;20489;-78
2022/03/25 00:39:18;;;;;;;14.82;10.65;;;19.40;51.10;;;;;;4987097;28;20035;-76
2022/03/25 00:41:44;;;;;;;15.75;11.93;;;19.40;52.00;;;;;;4985083;28;20026;-77
2022/03/25 00:44:11;;;;;;;17.35;12.18;;;19.40;52.50;;;;;;4985106;28;20092;-79
2022/03/25 00:46:36;;;;;;;15.98;11.90;;;19.40;52.70;;;;;;4985131;28;20034;-76
2022/03/25 00:49:04;;;;;;;18.17;13.00;;;19.50;53.10;;;;;;4985356;28;20031;-76
2022/03/25 00:51:30;;;;;;;19.50;13.38;;;19.40;53.50;;;;;;4985178;28;20054;-77
2022/03/25 00:53:55;;;;;;;19.40;12.63;;;19.40;53.80;;;;;;4986311;28;20058;-77
2022/03/25 00:56:21;;;;;;;17.60;12.70;;;19.40;53.80;;;;;;4991577;28;20153;-76
2022/03/25 00:58:47;;;;;;;15.75;12.10;;;19.30;53.80;;;;;;4969560;28;20030;-75
2022/03/25 01:01:13;;;;;;;17.10;11.98;;;19.30;54.00;;;;;;4978059;28;20049;-75
2022/03/25 01:03:38;;;;;;;16.75;11.93;;;19.40;53.80;;;;;;4965912;28;20038;-76
2022/03/25 01:06:04;;;;;;;18.73;12.60;;;19.30;53.30;;;;;;4986933;28;20104;-75
2022/03/25 01:08:30;;;;;;;19.17;13.43;;;19.30;53.70;;;;;;4991448;28;20034;-74
2022/03/25 01:10:55;;;;;;;15.52;12.30;;;19.30;53.90;;;;;;4991164;28;20038;-75
2022/03/25 01:13:21;;;;;;;17.55;12.25;;;19.30;54.00;;;;;;4991628;28;20029;-76
2022/03/25 01:15:47;;;;;;;18.67;13.88;;;19.20;54.00;;;;;;4991076;28;20030;-75
2022/03/25 01:18:13;;;;;;;18.45;12.98;;;19.30;53.90;;;;;;4991296;28;20042;-76
2022/03/25 01:20:38;;;;;;;18.45;13.20;;;19.30;53.90;;;;;;4990728;28;20029;-76
2022/03/25 01:23:06;;;;;;;17.40;13.10;;;19.30;54.50;;;;;;4991333;28;20092;-76
2022/03/25 01:25:33;;;;;;;19.10;13.70;;;19.20;53.90;;;;;;4990903;28;20054;-75
2022/03/25 01:27:58;;;;;;;18.65;13.40;;;19.20;53.70;;;;;;4973078;28;20042;-76
2022/03/25 01:30:25;;;;;;;18.75;12.65;;;19.20;53.70;;;;;;4975645;28;20031;-75
2022/03/25 01:32:50;;;;;;;16.27;12.77;;;19.10;53.70;;;;;;4975539;28;20528;-76
2022/03/25 01:35:17;;;;;;;16.35;11.82;;;19.20;53.50;;;;;;4975555;28;20046;-75
2022/03/25 01:37:43;;;;;;;18.77;13.07;;;19.10;53.60;;;;;;4975031;28;20494;-74
2022/03/25 01:40:09;;;;;;;17.40;12.77;;;19.10;53.60;;;;;;4975334;28;20018;-75
2022/03/25 01:42:39;;;;;;;19.27;13.20;;;19.10;53.50;;;;;;4993425;28;20038;-75
2022/03/25 01:45:05;;;;;;;17.35;13.15;;;19.10;53.40;;;;;;4994716;28;20026;-75
2022/03/25 01:47:32;;;;;;;17.30;12.95;;;19.10;53.30;;;;;;4994474;28;20069;-74
2022/03/25 01:49:59;;;;;;;18.27;13.27;;;19.00;53.30;;;;;;4994638;28;20015;-76
2022/03/25 01:52:27;;;;;;;18.95;13.05;;;19.00;53.20;;;;;;4994373;28;20489;-75
2022/03/25 01:54:53;;;;;;;16.50;12.55;;;19.00;53.20;;;;;;4994284;28;20566;-73
2022/03/25 01:57:23;;;;;;;19.60;13.15;;;19.00;53.10;;;;;;4994421;28;20544;-75
2022/03/25 01:59:49;;;;;;;17.50;12.70;;;18.90;52.90;;;;;;4976949;28;20497;-75
2022/03/25 02:02:14;;;;;;;17.92;13.05;;;19.00;53.00;;;;;;4993790;28;20041;-73
2022/03/25 02:04:41;;;;;;;16.75;12.77;;;18.90;53.00;;;;;;4976685;28;20044;-74
2022/03/25 02:07:08;;;;;;;18.45;13.27;;;18.90;52.90;;;;;;4994306;28;20030;-75
2022/03/25 02:09:33;;;;;;;18.77;13.40;;;18.90;52.90;;;;;;4994023;28;20474;-74
2022/03/25 02:11:59;;;;;;;20.48;14.93;;;18.90;52.90;;;;;;4976873;28;20034;-76
2022/03/25 02:14:25;;;;;;;17.67;14.27;;;18.90;53.50;;;;;;4976782;28;20030;-76
2022/03/25 02:16:51;;;;;;;16.98;13.05;;;18.90;53.00;;;;;;4993708;28;20042;-76
2022/03/25 02:19:20;;;;;;;17.60;13.20;;;18.90;52.80;;;;;;4976592;28;20081;-75
2022/03/25 02:21:47;;;;;;;17.00;13.45;;;18.90;52.80;;;;;;4975897;28;20037;-76
2022/03/25 02:24:14;;;;;;;18.45;14.23;;;18.90;52.90;;;;;;4994019;28;20038;-75
2022/03/25 02:26:41;;;;;;;21.73;15.57;;;18.80;52.80;;;;;;4993743;28;20030;-75
2022/03/25 02:29:10;;;;;;;20.00;14.38;;;18.80;52.90;;;;;;4976431;28;20046;-76
2022/03/25 02:31:36;;;;;;;19.00;14.50;;;18.80;52.80;;;;;;4993014;28;20042;-76
2022/03/25 02:34:08;;;;;;;20.20;13.55;;;18.80;52.80;;;;;;4993877;28;20101;-75
2022/03/25 02:36:38;;;;;;;20.70;14.80;;;18.80;53.30;;;;;;4976168;28;20088;-75
2022/03/25 02:39:05;;;;;;;16.27;12.88;;;18.70;52.70;;;;;;4975925;28;20037;-76
2022/03/25 02:41:31;;;;;;;17.48;13.05;;;18.70;52.60;;;;;;4993438;28;20014;-76
2022/03/25 02:43:57;;;;;;;19.65;14.68;;;18.70;52.60;;;;;;4993674;28;20081;-76
2022/03/25 02:46:23;;;;;;;20.23;15.20;;;18.70;52.60;;;;;;4993593;28;20230;-75
2022/03/25 02:48:49;;;;;;;17.38;13.95;;;18.70;52.50;;;;;;4993719;28;20033;-75
2022/03/25 02:51:14;;;;;;;21.17;14.35;;;18.70;52.50;;;;;;4975903;28;20038;-75
2022/03/25 02:53:40;;;;;;;17.88;13.90;;;18.70;52.40;;;;;;4992904;28;20081;-76
2022/03/25 02:56:06;;;;;;;18.95;13.95;;;18.70;52.40;;;;;;4993427;28;20030;-76
2022/03/25 02:58:31;;;;;;;20.63;15.15;;;18.70;52.50;;;;;;4993123;28;20556;-75
2022/03/25 03:00:57;;;;;;;22.17;16.02;;;18.60;52.40;;;;;;4975808;28;20130;-75
2022/03/25 03:03:23;;;;;;;19.23;14.65;;;18.60;52.50;;;;;;4993687;28;20034;-76
2022/03/25 03:05:48;;;;;;;22.92;14.52;;;18.60;52.50;;;;;;4975731;28;20027;-76
2022/03/25 03:08:14;;;;;;;21.33;14.50;;;18.60;52.50;;;;;;4993008;28;20026;-75
2022/03/25 03:10:41;;;;;;;20.20;14.55;;;18.60;52.50;;;;;;4992946;28;20026;-75
2022/03/25 03:13:07;;;;;;;20.10;14.55;;;18.60;52.50;;;;;;4975602;28;20402;-75
2022/03/25 03:15:33;;;;;;;20.30;14.73;;;18.60;52.50;;;;;;4992869;28;20023;-74
2022/03/25 03:17:59;;;;;;;19.67;14.80;;;18.60;52.50;;;;;;4992908;28;20451;-75
2022/03/25 03:20:25;;;;;;;19.50;15.48;;;18.60;53.10;;;;;;4992937;28;20023;-74
2022/03/25 03:22:51;;;;;;;19.77;14.50;;;18.60;52.50;;;;;;4992434;28;20129;-74
2022/03/25 03:25:18;;;;;;;21.17;16.20;;;18.50;52.50;;;;;;4992890;28;20502;-75
2022/03/25 03:27:44;;;;;;;22.02;15.73;;;18.50;52.40;;;;;;4992535;28;20033;-76
2022/03/25 03:30:11;;;;;;;22.30;16.13;;;18.50;52.30;;;;;;4992252;28;20486;-77
2022/03/25 03:32:37;;;;;;;20.88;16.23;;;18.50;52.10;;;;;;4975046;28;20026;-76
2022/03/25 03:35:03;;;;;;;21.33;15.63;;;18.50;52.10;;;;;;4975279;28;20030;-75
2022/03/25 03:37:29;;;;;;;20.73;15.00;;;18.50;52.00;;;;;;4992768;28;20039;-76
2022/03/25 03:39:55;;;;;;;22.33;17.05;;;18.50;52.10;;;;;;4992387;28;20386;-75
2022/03/25 03:42:21;;;;;;;22.67;16.10;;;18.50;52.00;;;;;;4992584;28;20022;-74
2022/03/25 03:44:46;;;;;;;23.20;17.42;;;18.40;52.00;;;;;;4992291;28;20040;-75
2022/03/25 03:47:12;;;;;;;21.65;16.85;;;18.50;52.10;;;;;;4992464;28;20026;-76
2022/03/25 03:49:39;;;;;;;22.45;16.15;;;18.40;52.60;;;;;;4992077;28;20030;-76
2022/03/25 03:52:05;;;;;;;22.77;16.67;;;18.40;52.10;;;;;;4991706;28;20409;-76
2022/03/25 03:54:33;;;;;;;22.27;17.10;;;18.40;52.10;;;;;;4992271;28;20029;-76
2022/03/25 03:56:59;;;;;;;21.50;16.77;;;18.40;52.10;;;;;;4991888;28;20034;-75
2022/03/25 03:59:25;;;;;;;24.35;17.17;;;18.40;52.10;;;;;;4992474;28;20041;-74
2022/03/25 04:01:51;;;;;;;21.75;16.38;;;18.40;52.20;;;;;;4992156;28;20023;-75
2022/03/25 04:04:17;;;;;;;21.38;17.05;;;18.30;52.10;;;;;;4992045;28;20026;-74
2022/03/25 04:06:44;;;;;;;22.02;17.23;;;18.30;52.10;;;;;;4991970;28;20085;-74
2022/03/25 04:09:09;;;;;;;22.38;17.10;;;18.40;52.20;;;;;;4974671;28;20474;-74
2022/03/25 04:11:35;;;;;;;20.75;16.23;;;18.30;52.20;;;;;;4974066;28;20046;-74
2022/03/25 04:14:01;;;;;;;24.17;18.67;;;18.30;52.20;;;;;;4992036;28;20029;-73
2022/03/25 04:16:29;;;;;;;22.67;16.77;;;18.30;52.10;;;;;;4974405;28;20022;-75
2022/03/25 04:18:55;;;;;;;21.27;16.70;;;18.30;52.10;;;;;;4991615;28;20082;-74
2022/03/25 04:21:21;;;;;;;22.52;16.85;;;18.30;52.10;;;;;;4991736;28;20094;-75
2022/03/25 04:23:47;;;;;;;26.88;18.58;;;18.30;52.10;;;;;;4974257;28;20121;-75
2022/03/25 04:26:12;;;;;;;23.98;17.95;;;18.20;52.00;;;;;;4991948;28;20030;-74
2022/03/25 04:28:38;;;;;;;22.67;17.58;;;18.30;52.00;;;;;;4991620;28;20482;-76
2022/03/25 04:31:04;;;;;;;23.83;17.13;;;18.20;52.00;;;;;;4991801;28;20485;-74
2022/03/25 04:33:32;;;;;;;21.95;17.20;;;18.20;52.00;;;;;;4974343;28;20028;-72
2022/03/25 04:35:58;;;;;;;23.83;18.50;;;18.20;52.00;;;;;;4974507;28;20485;-74
2022/03/25 04:38:23;;;;;;;24.13;18.13;;;18.20;52.00;;;;;;4991944;28;20070;-76
2022/03/25 04:40:49;;;;;;;22.45;17.50;;;18.20;52.00;;;;;;4974005;28;20026;-75
2022/03/25 04:43:15;;;;;;;24.67;18.73;;;18.20;52.10;;;;;;4991663;28;20501;-75
2022/03/25 04:45:41;;;;;;;24.65;17.98;;;18.20;52.10;;;;;;4991428;28;20030;-75
2022/03/25 04:48:10;;;;;;;24.35;17.30;;;18.20;52.10;;;;;;4991623;28;20081;-75
2022/03/25 04:50:40;;;;;;;26.60;18.63;;;18.20;52.10;;;;;;4991071;28;20032;-74
2022/03/25 04:53:06;;;;;;;24.15;18.45;;;18.20;52.10;;;;;;4991639;28;20030;-75
2022/03/25 04:55:31;;;;;;;23.35;18.02;;;18.20;52.10;;;;;;4991150;28;20031;-74
2022/03/25 04:57:57;;;;;;;22.10;15.90;;;18.10;52.10;;;;;;4991601;28;20037;-75
2022/03/25 05:00:23;;;;;;;21.48;15.88;;;18.20;52.10;;;;;;4974066;28;20483;-75
2022/03/25 05:02:49;;;;;;;25.02;18.50;;;18.10;52.10;;;;;;4993465;28;20092;-75
2022/03/25 05:05:15;;;;;;;24.35;17.98;;;18.10;52.10;;;;;;4995469;28;20406;-74
2022/03/25 05:07:43;;;;;;;25.92;18.00;;;18.10;52.00;;;;;;4995159;28;20022;-75
2022/03/25 05:10:10;;;;;;;22.45;16.52;;;18.10;52.00;;;;;;4978143;28;20038;-75
2022/03/25 05:12:37;;;;;;;23.48;17.23;;;18.10;52.00;;;;;;4995220;28;20018;-75
2022/03/25 05:15:03;;;;;;;25.20;17.33;;;18.10;52.10;;;;;;4995308;28;20053;-76
2022/03/25 05:17:28;;;;;;;23.65;17.42;;;18.10;52.10;;;;;;4994884;28;20035;-74
2022/03/25 05:19:54;;;;;;;24.52;18.05;;;18.10;52.10;;;;;;4994876;28;20026;-75
2022/03/25 05:22:20;;;;;;;23.98;18.30;;;18.10;52.10;;;;;;4994427;28;20022;-74
2022/03/25 05:24:46;;;;;;;26.58;18.67;;;18.10;52.10;;;;;;4977382;28;20054;-76
2022/03/25 05:27:11;;;;;;;23.60;17.05;;;18.00;52.00;;;;;;4995017;28;20026;-76
2022/03/25 05:29:37;;;;;;;25.38;18.45;;;18.00;52.00;;;;;;4994810;28;20478;-74
2022/03/25 05:32:03;;;;;;;24.23;18.45;;;18.00;52.10;;;;;;4995099;28;20516;-76
2022/03/25 05:34:28;;;;;;;24.75;16.98;;;18.00;52.10;;;;;;4995008;28;20384;-74
2022/03/25 05:36:54;;;;;;;24.52;18.20;;;18.00;52.10;;;;;;4994170;28;20401;-76
2022/03/25 05:39:20;;;;;;;27.25;18.83;;;18.00;52.20;;;;;;4994987;28;20069;-75
2022/03/25 05:41:45;;;;;;;25.80;18.52;;;18.00;52.20;;;;;;4994355;28;20018;-75
2022/03/25 05:44:11;;;;;;;22.88;17.90;;;18.00;52.20;;;;;;4994628;28;20034;-75
2022/03/25 05:46:38;;;;;;;23.05;15.90;;;17.90;52.10;;;;;;4994599;28;20025;-76
2022/03/25 05:49:04;;;;;;;23.70;17.17;;;17.90;52.10;;;;;;4994757;28;20023;-76
2022/03/25 05:51:30;;;;;;;23.50;17.30;;;17.90;52.20;;;;;;4994486;28;20557;-76
2022/03/25 05:53:56;;;;;;;27.50;17.63;;;17.90;52.20;;;;;;4994936;28;20031;-75
2022/03/25 05:56:22;;;;;;;26.00;19.33;;;18.00;52.20;;;;;;4994831;28;20148;-75
2022/03/25 05:58:48;;;;;;;23.35;17.58;;;17.90;52.10;;;;;;4993970;28;20038;-75
2022/03/25 06:01:14;;;;;;;24.70;18.20;;;17.90;52.10;;;;;;4985129;28;20038;-75
2022/03/25 06:03:41;;;;;;;22.85;18.45;;;17.90;52.10;;;;;;4994279;28;20037;-75
2022/03/25 06:06:07;;;;;;;25.33;17.90;;;17.90;52.10;;;;;;4994503;28;20158;-75
2022/03/25 06:08:33;;;;;;;23.65;17.60;;;17.90;52.20;;;;;;4994287;28;20105;-75
2022/03/25 06:10:59;;;;;;;24.55;17.63;;;17.90;52.20;;;;;;4986304;28;20038;-75
2022/03/25 06:13:26;;;;;;;27.25;18.30;;;17.90;52.20;;;;;;4975152;28;20110;-74
2022/03/25 06:15:53;;;;;;;20.23;15.88;;;17.90;52.10;;;;;;4989283;28;20019;-74
2022/03/25 06:18:19;;;;;;;24.95;17.25;;;17.90;52.10;;;;;;4974434;28;20047;-74
2022/03/25 06:20:45;;;;;;;24.27;17.95;;;17.90;52.20;;;;;;4978528;28;20517;-74
2022/03/25 06:23:10;;;;;;;23.70;17.98;;;17.80;52.10;;;;;;4991153;28;20037;-74
2022/03/25 06:25:36;;;;;;;24.73;18.13;;;17.80;52.20;;;;;;4993342;28;20034;-75
2022/03/25 06:28:07;;;;;;;23.27;17.25;;;17.80;52.20;;;;;;4994060;28;20029;-74
2022/03/25 06:30:35;;;;;;;23.75;17.38;;;17.80;52.20;;;;;;4989306;28;20022;-75
2022/03/25 06:33:02;;;;;;;22.95;18.52;;;17.80;52.20;;;;;;4976011;28;20035;-74
2022/03/25 06:35:28;;;;;;;23.35;18.00;;;17.80;52.20;;;;;;4994120;28;20109;-74
2022/03/25 06:37:55;;;;;;;26.45;18.52;;;17.80;52.20;;;;;;4976381;28;20565;-75
2022/03/25 06:40:22;;;;;;;24.50;17.88;;;17.80;52.20;;;;;;4975489;28;20034;-75
2022/03/25 06:42:49;;;;;;;24.58;17.90;;;17.80;52.20;;;;;;4974073;28;20057;-75
2022/03/25 06:45:16;;;;;;;24.05;17.27;;;17.80;52.20;;;;;;4974281;28;20026;-75
2022/03/25 06:47:42;;;;;;;24.15;18.00;;;17.80;52.30;;;;;;4982167;28;20101;-75
2022/03/25 06:50:10;;;;;;;26.65;18.15;;;17.80;52.30;;;;;;4975787;28;20030;-75
2022/03/25 06:52:37;;;;;;;25.60;17.80;;;17.80;52.50;;;;;;4993022;28;20041;-75
2022/03/25 06:55:03;;;;;;;28.00;18.40;;;17.80;52.60;;;;;;4993614;28;20475;-75
2022/03/25 06:57:29;;;;;;;38.78;23.48;;;17.80;52.80;;;;;;4993378;28;20383;-75
2022/03/25 06:59:55;;;;;;;33.42;24.75;;;17.80;53.30;;;;;;4993426;28;20033;-75
2022/03/25 07:02:21;;;;;;;28.30;20.95;;;17.80;53.70;;;;;;4993295;28;20023;-75
2022/03/25 07:04:47;;;;;;;34.20;23.02;;;17.90;53.60;;;;;;4993115;28;20027;-75
2022/03/25 07:07:16;;;;;;;34.47;24.20;;;17.90;53.70;;;;;;4992483;28;20246;-75
2022/03/25 07:09:42;;;;;;;34.22;24.00;;;17.90;54.10;;;;;;4992966;28;20046;-75
2022/03/25 07:12:08;;;;;;;37.22;24.27;;;17.90;54.10;;;;;;4993272;28;20083;-76
2022/03/25 07:14:34;;;;;;;39.00;24.67;;;17.90;54.00;;;;;;4992980;28;20022;-75
2022/03/25 07:16:59;;;;;;;34.17;23.52;;;17.90;54.10;;;;;;4992990;28;20032;-75
2022/03/25 07:19:25;;;;;;;35.53;24.85;;;17.90;54.00;;;;;;4975998;28;20085;-77
2022/03/25 07:21:53;;;;;;;42.90;29.55;;;17.90;54.00;;;;;;4992894;28;20022;-76
2022/03/25 07:24:20;;;;;;;50.95;30.13;;;17.90;53.90;;;;;;4992912;28;20057;-77
2022/03/25 07:26:45;;;;;;;43.03;27.83;;;17.90;54.50;;;;;;4991933;28;20022;-77
2022/03/25 07:29:11;;;;;;;43.85;29.52;;;17.90;54.00;;;;;;4992483;28;20034;-78
2022/03/25 07:31:37;;;;;;;45.40;30.73;;;17.90;53.90;;;;;;4992116;28;20102;-77
2022/03/25 07:34:03;;;;;;;48.08;30.67;;;17.90;53.80;;;;;;4989851;28;20113;-78
2022/03/25 07:36:29;;;;;;;41.33;29.23;;;17.90;53.70;;;;;;4976161;28;20113;-77
2022/03/25 07:38:55;;;;;;;42.03;30.35;;;17.90;53.70;;;;;;4983438;28;20570;-75
2022/03/25 07:41:21;;;;;;;43.22;30.35;;;18.00;53.70;;;;;;4980978;28;20517;-75
2022/03/25 07:43:46;;;;;;;43.22;30.40;;;17.90;53.50;;;;;;4992387;28;20431;-76
2022/03/25 07:46:12;;;;;;;52.78;34.25;;;18.00;53.50;;;;;;4991818;28;20069;-76
2022/03/25 07:48:38;;;;;;;50.22;33.92;;;17.90;53.50;;;;;;4987004;28;20038;-76
2022/03/25 07:51:05;;;;;;;51.65;33.40;;;17.90;53.50;;;;;;4991786;28;20060;-76
2022/03/25 07:53:33;;;;;;;50.85;34.30;;;18.00;53.50;;;;;;4987139;28;20110;-77
2022/03/25 07:56:00;;;;;;;45.88;32.80;;;18.00;53.60;;;;;;4961305;28;20026;-77
2022/03/25 07:58:26;;;;;;;50.45;35.53;;;18.00;53.60;;;;;;4983897;28;20058;-78
2022/03/25 08:00:52;;;;;;;55.22;36.25;;;18.00;53.50;;;;;;4981876;28;20764;-76
2022/03/25 08:03:18;;;;;;;55.30;36.53;;;18.00;53.70;;;;;;4983841;28;20076;-76
2022/03/25 08:05:47;;;;;;;51.35;35.92;;;18.10;53.80;;;;;;4974596;28;20034;-76
2022/03/25 08:08:13;;;;;;;49.72;33.28;;;18.10;53.80;;;;;;4992406;28;20198;-76
2022/03/25 08:10:39;;;;;;;51.33;35.83;;;18.10;53.70;;;;;;4991190;28;20109;-76
2022/03/25 08:13:05;;;;;;;45.45;31.85;;;18.10;53.70;;;;;;4992301;28;20022;-76
2022/03/25 08:15:32;;;;;;;51.45;33.22;;;18.10;53.60;;;;;;4991157;28;20026;-76
2022/03/25 08:18:00;;;;;;;47.05;31.85;;;18.20;53.70;;;;;;4973281;28;20125;-76
2022/03/25 08:20:41;;;;;;;48.05;32.63;;;18.20;53.60;;;;;;4983023;28;20019;-76
2022/03/25 08:23:13;;;;;;;44.40;32.20;;;18.20;53.50;;;;;;4974771;28;20172;-76
2022/03/25 08:28:26;;;;;;;42.58;30.55;;;18.20;53.40;;;;;;4978740;28;20033;-76
2022/03/25 08:30:51;;;;;;;44.45;31.52;;;18.20;53.40;;;;;;4964911;28;20026;-76
2022/03/25 08:33:18;;;;;;;43.53;29.10;;;18.20;53.30;;;;;;4983020;28;20477;-77
2022/03/25 08:35:44;;;;;;;42.92;31.25;;;18.20;53.30;;;;;;4962993;28;20479;-76
2022/03/25 08:38:11;;;;;;;44.45;29.70;;;18.30;53.20;;;;;;4964583;28;20088;-78
2022/03/25 08:40:37;;;;;;;43.95;29.85;;;18.30;53.20;;;;;;4991283;28;20027;-77
2022/03/25 08:43:04;;;;;;;43.42;28.50;;;18.30;53.10;;;;;;4965919;28;20153;-78
2022/03/25 08:45:31;;;;;;;39.08;28.45;;;18.40;53.10;;;;;;4978421;28;20042;-77
2022/03/25 08:47:57;;;;;;;38.40;26.67;;;18.30;53.00;;;;;;4982109;28;20065;-77
2022/03/25 08:50:24;;;;;;;42.20;27.40;;;18.40;53.00;;;;;;4989362;28;20029;-77
2022/03/25 08:52:51;;;;;;;37.33;27.27;;;18.30;52.90;;;;;;4987802;28;20034;-77
2022/03/25 08:55:19;;;;;;;40.63;28.40;;;18.40;53.00;;;;;;4988797;28;20474;-76
2022/03/25 08:57:45;;;;;;;36.55;25.77;;;18.40;52.90;;;;;;4990079;28;20045;-76
2022/03/25 09:00:13;;;;;;;37.33;25.80;;;18.40;52.80;;;;;;4991529;28;20022;-76
2022/03/25 09:02:40;;;;;;;34.95;24.73;;;18.40;52.80;;;;;;4991360;28;20541;-77
2022/03/25 09:05:07;;;;;;;38.35;27.20;;;18.40;52.70;;;;;;4991663;28;20030;-76
2022/03/25 09:07:34;;;;;;;36.88;25.17;;;18.40;52.80;;;;;;4990812;28;20146;-76
2022/03/25 09:09:59;;;;;;;38.13;24.88;;;18.40;52.80;;;;;;4982320;28;20057;-75
2022/03/25 09:12:25;;;;;;;34.15;24.95;;;18.50;52.70;;;;;;4989018;28;20559;-76
2022/03/25 09:14:51;;;;;;;32.85;22.70;;;18.50;52.60;;;;;;4979531;28;21315;-77
2022/03/25 09:17:17;;;;;;;32.67;23.40;;;18.50;52.40;;;;;;4983443;28;20371;-77
2022/03/25 09:19:43;;;;;;;38.22;23.80;;;18.60;52.40;;;;;;4984806;28;20564;-77
2022/03/25 09:22:09;;;;;;;30.42;21.80;;;18.50;52.30;;;;;;4990506;28;20072;-78
2022/03/25 09:24:35;;;;;;;34.63;22.30;;;18.60;52.30;;;;;;4987030;28;20573;-78
2022/03/25 09:27:01;;;;;;;28.38;20.60;;;18.60;52.20;;;;;;4991629;28;20106;-75
2022/03/25 09:29:26;;;;;;;30.27;20.88;;;18.60;52.10;;;;;;4991728;28;20097;-77
2022/03/25 09:31:52;;;;;;;28.13;20.65;;;18.60;52.10;;;;;;4990164;28;20417;-76
2022/03/25 09:37:02;;;;;;;26.00;19.20;;;18.70;52.00;;;;;;4990718;28;20045;-76
2022/03/25 09:39:27;;;;;;;24.90;18.10;;;18.70;51.90;;;;;;4991603;28;20431;-77
2022/03/25 09:41:54;;;;;;;27.13;20.05;;;18.70;51.80;;;;;;4968827;28;20036;-77
2022/03/25 09:44:19;;;;;;;25.48;19.33;;;18.70;51.80;;;;;;4991347;28;20077;-76
2022/03/25 09:46:45;;;;;;;26.25;17.63;;;18.70;51.70;;;;;;4991109;28;20018;-76
2022/03/25 09:49:12;;;;;;;24.00;17.10;;;18.80;51.80;;;;;;4981326;28;20030;-76
2022/03/25 09:51:40;;;;;;;31.08;18.70;;;18.80;51.70;;;;;;4983902;28;20039;-77
2022/03/25 09:54:08;;;;;;;20.73;15.75;;;18.80;51.70;;;;;;4987608;28;20034;-76
2022/03/25 09:56:34;;;;;;;23.33;17.70;;;18.80;51.70;;;;;;4976168;28;20466;-77
2022/03/25 09:59:00;;;;;;;23.58;15.88;;;18.80;51.60;;;;;;4982343;28;20026;-78
2022/03/25 10:01:26;;;;;;;23.95;17.30;;;18.80;51.60;;;;;;4971269;28;20505;-77
2022/03/25 10:03:52;;;;;;;20.20;15.13;;;18.80;51.60;;;;;;4987849;28;20098;-77
2022/03/25 10:06:17;;;;;;;21.65;14.73;;;18.90;51.50;;;;;;4984212;28;20105;-76
2022/03/25 10:08:45;;;;;;;21.15;14.82;;;18.90;51.40;;;;;;4993050;28;20516;-77
2022/03/25 10:11:28;;;;;;;21.63;15.25;;;19.00;51.50;;;;;;4993857;28;20496;-76
2022/03/25 10:14:28;;;;;;;25.40;14.45;;;19.00;51.40;;;;;;4993067;28;20105;-76
2022/03/25 10:16:54;;;;;;;15.70;12.52;;;19.00;51.40;;;;;;4979568;28;20503;-76
2022/03/25 10:19:22;;;;;;;17.83;12.63;;;19.00;51.30;;;;;;4957397;28;20534;-76
2022/03/25 10:22:01;;;;;;;16.15;12.63;;;19.00;51.30;;;;;;4974517;28;20491;-76
2022/03/25 10:24:38;;;;;;;19.80;13.40;;;19.00;51.20;;;;;;4974990;28;20081;-76
2022/03/25 10:27:06;;;;;;;15.30;11.60;;;19.10;51.20;;;;;;4989229;28;20026;-76
2022/03/25 10:29:32;;;;;;;16.95;10.85;;;19.10;51.20;;;;;;4965641;28;20033;-76
2022/03/25 10:32:11;;;;;;;20.30;11.95;;;19.10;51.10;;;;;;4988608;28;20522;-76
2022/03/25 10:34:39;;;;;;;16.70;11.75;;;19.20;51.10;;;;;;4987481;28;20394;-77
2022/03/25 10:37:12;;;;;;;13.10;10.07;;;19.20;51.00;;;;;;4993856;28;20023;-77
2022/03/25 10:39:39;;;;;;;15.98;9.77;;;19.20;51.00;;;;;;4984106;28;20588;-77
2022/03/25 10:42:08;;;;;;;15.80;10.75;;;19.20;50.90;;;;;;4990030;28;20514;-75
2022/03/25 10:44:35;;;;;;;16.15;9.85;;;19.20;50.90;;;;;;4974282;28;20041;-76
2022/03/25 10:47:20;;;;;;;16.45;9.90;;;19.30;50.90;;;;;;4974911;28;20085;-77
2022/03/25 10:49:47;;;;;;;16.35;10.02;;;19.30;50.90;;;;;;4971983;28;20053;-77
2022/03/25 10:52:30;;;;;;;18.00;8.48;;;19.40;50.90;;;;;;4972221;28;20513;-77
2022/03/25 10:55:35;;;;;;;12.18;8.45;;;19.40;50.90;;;;;;4974636;28;20042;-77
2022/03/25 10:58:00;;;;;;;13.70;9.23;;;19.40;50.90;;;;;;4896238;29;20048;-76
2022/03/25 11:00:27;;;;;;;12.40;8.93;;;19.40;50.90;;;;;;4895559;29;20024;-77
2022/03/25 11:02:54;;;;;;;13.75;9.02;;;19.40;50.80;;;;;;4937059;28;20049;-76
2022/03/25 11:05:20;;;;;;;12.00;8.32;;;19.40;50.70;;;;;;4993248;28;20022;-77
2022/03/25 11:07:47;;;;;;;13.65;8.10;;;19.50;50.80;;;;;;4990290;28;20397;-76
2022/03/25 11:10:17;;;;;;;13.25;7.55;;;19.50;50.70;;;;;;4993217;28;20030;-75
2022/03/25 11:12:45;;;;;;;10.57;7.22;;;19.50;50.60;;;;;;4993102;28;20026;-75
2022/03/25 11:15:15;;;;;;;11.32;7.47;;;19.60;50.60;;;;;;4975761;28;20034;-75
2022/03/25 11:17:42;;;;;;;10.30;7.35;;;19.70;50.60;;;;;;4988244;28;20061;-74
2022/03/25 11:20:13;;;;;;;14.15;7.65;;;19.70;50.50;;;;;;4992862;28;20085;-74
2022/03/25 11:22:46;;;;;;;11.60;7.20;;;19.70;50.40;;;;;;4992153;28;20053;-74
2022/03/25 11:25:15;;;;;;;11.90;8.00;;;19.80;50.30;;;;;;4993031;28;20019;-74
2022/03/25 11:27:46;;;;;;;10.50;6.10;;;19.90;50.40;;;;;;4992692;28;20034;-74
2022/03/25 11:30:16;;;;;;;8.68;6.63;;;19.90;50.20;;;;;;4992962;28;20030;-76
2022/03/25 11:33:04;;;;;;;9.57;6.57;;;20.00;50.20;;;;;;4992794;28;20085;-74
2022/03/25 11:35:32;;;;;;;10.93;6.28;;;20.00;50.10;;;;;;4993132;28;20025;-75
2022/03/25 11:38:10;;;;;;;9.90;6.50;;;20.10;50.20;;;;;;4975612;28;20478;-74
2022/03/25 11:40:42;;;;;;;9.23;6.45;;;20.10;50.10;;;;;;4992447;28;20512;-74
2022/03/25 11:43:15;;;;;;;11.30;6.32;;;20.20;50.00;;;;;;4992714;28;20113;-74
2022/03/25 11:46:00;;;;;;;7.78;5.70;;;20.20;49.90;;;;;;4992365;28;20022;-74
2022/03/25 11:48:26;;;;;;;9.60;5.55;;;20.30;49.80;;;;;;4992979;28;20110;-74
2022/03/25 11:50:54;;;;;;;7.28;5.03;;;20.40;49.60;;;;;;4992188;28;20061;-75
2022/03/25 11:53:22;;;;;;;9.85;5.50;;;20.40;49.50;;;;;;4992527;28;20080;-74
2022/03/25 11:56:09;;;;;;;7.93;5.25;;;20.50;49.30;;;;;;4992156;28;20015;-75
2022/03/25 11:58:36;;;;;;;8.88;5.65;;;20.60;49.30;;;;;;4992251;28;20030;-73
2022/03/25 12:01:19;;;;;;;11.13;5.75;;;20.70;49.10;;;;;;4992340;28;20022;-75
2022/03/25 12:03:52;;;;;;;9.95;5.15;;;20.80;48.90;;;;;;4985975;28;20392;-75
2022/03/25 12:06:19;;;;;;;8.77;5.78;;;20.80;48.60;;;;;;4991778;28;20509;-77
2022/03/25 12:09:02;;;;;;;10.68;4.93;;;20.90;48.50;;;;;;4991708;28;20058;-77
2022/03/25 12:11:53;;;;;;;6.47;4.95;;;21.00;48.40;;;;;;4974230;28;20026;-76
2022/03/25 12:14:28;;;;;;;10.10;4.88;;;21.10;48.30;;;;;;4991939;28;20446;-76
2022/03/25 12:16:56;;;;;;;6.97;5.03;;;21.20;48.10;;;;;;4991868;28;20034;-76
2022/03/25 12:19:40;;;;;;;8.00;4.60;;;21.40;48.00;;;;;;4974566;28;20065;-77
2022/03/25 12:22:20;;;;;;;11.95;5.40;;;21.60;47.70;;;;;;4991606;28;20026;-75
2022/03/25 12:24:54;;;;;;;9.82;5.05;;;21.80;47.50;;;;;;4988026;28;20121;-75
2022/03/25 12:27:21;;;;;;;7.22;4.13;;;22.10;47.30;;;;;;4978130;28;20027;-75
2022/03/25 12:29:50;;;;;;;8.18;4.50;;;22.20;47.10;;;;;;4972261;28;20553;-76
2022/03/25 12:32:17;;;;;;;12.30;4.75;;;22.50;46.80;;;;;;4955035;28;20498;-75
2022/03/25 12:35:01;;;;;;;19.98;6.80;;;22.60;46.90;;;;;;4972125;28;20109;-75